Terminal Aerodrome Forecast
Issued by NWS New Orleans/Baton Rouge, LA

Home | Current Version | Previous Version | Text Only | Print | Product List | Glossary On
Versions: 1 2 3 4 5 6 7 8 9 10 11 12 13 14 15 16 17 18 19 20 21 22 23 24 25 26 27 28 29 30 31 32 33
000
FTUS44 KLIX 121739
TAFNEW
TAF
KNEW 121739Z 1218/1318 28010KT P6SM FEW027 BKN035
     FM130300 34008KT P6SM SKC
     FM130500 01009KT P6SM SKC
     FM130800 03013KT P6SM SKC=

USA.gov is the U.S. government's official web portal to all federal, state and local government web resources and services.